sensor_id;sensor_type;location;lat;lon;timestamp;pressure;altitude;pressure_sealevel;temperature;humidity
78431;BME280;67727;50.236;22.452;2024-01-25T00:01:47;99034.08;;;5.71;79.41
78431;BME280;67727;50.236;22.452;2024-01-25T00:04:14;99040.42;;;5.71;79.45
78431;BME280;67727;50.236;22.452;2024-01-25T00:06:41;99037.77;;;5.70;79.36
78431;BME280;67727;50.236;22.452;2024-01-25T00:09:08;99038.45;;;5.68;79.28
78431;BME280;67727;50.236;22.452;2024-01-25T00:11:35;99045.89;;;5.69;79.52
78431;BME280;67727;50.236;22.452;2024-01-25T00:14:02;99052.82;;;5.70;79.43
78431;BME280;67727;50.236;22.452;2024-01-25T00:16:29;99063.76;;;5.71;79.51
78431;BME280;67727;50.236;22.452;2024-01-25T00:18:57;99065.21;;;5.70;79.94
78431;BME280;67727;50.236;22.452;2024-01-25T00:21:24;99071.26;;;5.69;79.93
78431;BME280;67727;50.236;22.452;2024-01-25T00:23:50;99068.46;;;5.70;79.69
78431;BME280;67727;50.236;22.452;2024-01-25T00:26:17;99075.13;;;5.69;79.87
78431;BME280;67727;50.236;22.452;2024-01-25T00:28:44;99072.73;;;5.69;79.94
78431;BME280;67727;50.236;22.452;2024-01-25T00:31:11;99076.28;;;5.68;79.86
78431;BME280;67727;50.236;22.452;2024-01-25T00:33:38;99083.48;;;5.68;79.58
78431;BME280;67727;50.236;22.452;2024-01-25T00:36:05;99081.48;;;5.69;79.53
78431;BME280;67727;50.236;22.452;2024-01-25T00:38:33;99089.04;;;5.69;79.62
78431;BME280;67727;50.236;22.452;2024-01-25T00:41:00;99080.42;;;5.69;79.45
78431;BME280;67727;50.236;22.452;2024-01-25T00:43:27;99078.81;;;5.69;79.58
78431;BME280;67727;50.236;22.452;2024-01-25T00:45:54;99075.10;;;5.70;79.45
78431;BME280;67727;50.236;22.452;2024-01-25T00:48:21;99079.20;;;5.71;79.55
78431;BME280;67727;50.236;22.452;2024-01-25T00:50:49;99082.48;;;5.73;79.73
78431;BME280;67727;50.236;22.452;2024-01-25T00:53:16;99080.35;;;5.75;79.44
78431;BME280;67727;50.236;22.452;2024-01-25T00:55:43;99075.42;;;5.76;79.70
78431;BME280;67727;50.236;22.452;2024-01-25T00:58:11;99085.61;;;5.75;79.51
78431;BME280;67727;50.236;22.452;2024-01-25T01:00:38;99083.59;;;5.74;79.57
78431;BME280;67727;50.236;22.452;2024-01-25T01:03:06;99078.68;;;5.72;79.44
78431;BME280;67727;50.236;22.452;2024-01-25T01:05:33;99074.05;;;5.70;79.61
78431;BME280;67727;50.236;22.452;2024-01-25T01:08:00;99069.02;;;5.66;79.40
78431;BME280;67727;50.236;22.452;2024-01-25T01:10:27;99068.41;;;5.62;79.01
78431;BME280;67727;50.236;22.452;2024-01-25T01:12:54;99064.68;;;5.57;79.00
78431;BME280;67727;50.236;22.452;2024-01-25T01:15:21;99071.89;;;5.52;78.82
78431;BME280;67727;50.236;22.452;2024-01-25T01:17:48;99071.52;;;5.47;78.54
78431;BME280;67727;50.236;22.452;2024-01-25T01:20:15;99067.35;;;5.42;78.70
78431;BME280;67727;50.236;22.452;2024-01-25T01:22:42;99067.98;;;5.34;78.65
78431;BME280;67727;50.236;22.452;2024-01-25T01:25:08;99060.79;;;5.28;78.83
78431;BME280;67727;50.236;22.452;2024-01-25T01:27:37;99057.73;;;5.21;79.05
78431;BME280;67727;50.236;22.452;2024-01-25T01:30:04;99048.86;;;5.15;79.28
78431;BME280;67727;50.236;22.452;2024-01-25T01:32:31;99049.29;;;5.10;79.47
78431;BME280;67727;50.236;22.452;2024-01-25T01:34:58;99049.61;;;5.05;79.70
78431;BME280;67727;50.236;22.452;2024-01-25T01:37:25;99055.05;;;5.01;79.66
78431;BME280;67727;50.236;22.452;2024-01-25T01:39:51;99061.02;;;5.01;79.93
78431;BME280;67727;50.236;22.452;2024-01-25T01:42:19;99061.63;;;5.00;79.75
78431;BME280;67727;50.236;22.452;2024-01-25T01:44:46;99061.52;;;4.98;79.76
78431;BME280;67727;50.236;22.452;2024-01-25T01:47:13;99060.05;;;4.95;80.11
78431;BME280;67727;50.236;22.452;2024-01-25T01:49:39;99059.74;;;4.93;80.05
78431;BME280;67727;50.236;22.452;2024-01-25T01:52:07;99053.96;;;4.91;79.99
78431;BME280;67727;50.236;22.452;2024-01-25T01:54:34;99047.27;;;4.92;80.22
78431;BME280;67727;50.236;22.452;2024-01-25T01:57:01;99055.05;;;4.91;80.36
78431;BME280;67727;50.236;22.452;2024-01-25T01:59:29;99043.52;;;4.91;80.41
78431;BME280;67727;50.236;22.452;2024-01-25T02:01:57;99042.80;;;4.93;80.36
78431;BME280;67727;50.236;22.452;2024-01-25T02:04:23;99035.73;;;4.95;80.19
78431;BME280;67727;50.236;22.452;2024-01-25T02:06:50;99038.96;;;4.99;80.01
78431;BME280;67727;50.236;22.452;2024-01-25T02:09:17;99040.18;;;5.03;79.94
78431;BME280;67727;50.236;22.452;2024-01-25T02:11:44;99043.88;;;5.06;80.08
78431;BME280;67727;50.236;22.452;2024-01-25T02:14:11;99035.98;;;5.08;80.39
78431;BME280;67727;50.236;22.452;2024-01-25T02:16:38;99031.67;;;5.09;81.05
78431;BME280;67727;50.236;22.452;2024-01-25T02:19:05;99023.01;;;5.08;81.43
78431;BME280;67727;50.236;22.452;2024-01-25T02:21:32;99020.18;;;5.07;81.73
78431;BME280;67727;50.236;22.452;2024-01-25T02:23:59;99018.38;;;5.05;81.77
78431;BME280;67727;50.236;22.452;2024-01-25T02:26:26;99011.52;;;5.04;81.90
78431;BME280;67727;50.236;22.452;2024-01-25T02:28:53;99010.70;;;5.04;82.05
78431;BME280;67727;50.236;22.452;2024-01-25T02:31:19;99004.40;;;5.04;82.08
78431;BME280;67727;50.236;22.452;2024-01-25T02:33:46;99007.11;;;5.03;82.09
78431;BME280;67727;50.236;22.452;2024-01-25T02:36:13;99010.47;;;5.02;82.04
78431;BME280;67727;50.236;22.452;2024-01-25T02:38:40;99005.90;;;5.03;82.09
78431;BME280;67727;50.236;22.452;2024-01-25T02:41:07;99011.72;;;5.02;82.06
78431;BME280;67727;50.236;22.452;2024-01-25T02:43:34;99015.26;;;5.02;81.77
78431;BME280;67727;50.236;22.452;2024-01-25T02:46:01;99013.68;;;5.03;81.48
78431;BME280;67727;50.236;22.452;2024-01-25T02:48:27;99015.42;;;5.05;81.51
78431;BME280;67727;50.236;22.452;2024-01-25T02:50:54;99014.23;;;5.05;81.48
78431;BME280;67727;50.236;22.452;2024-01-25T02:53:21;99017.98;;;5.06;81.36
78431;BME280;67727;50.236;22.452;2024-01-25T02:55:48;99020.02;;;5.06;81.29
78431;BME280;67727;50.236;22.452;2024-01-25T02:58:15;99024.69;;;5.07;80.90
78431;BME280;67727;50.236;22.452;2024-01-25T03:00:42;99024.75;;;5.08;81.00
78431;BME280;67727;50.236;22.452;2024-01-25T03:03:09;99027.56;;;5.08;80.53
78431;BME280;67727;50.236;22.452;2024-01-25T03:05:36;99025.30;;;5.10;80.53
78431;BME280;67727;50.236;22.452;2024-01-25T03:08:03;99025.59;;;5.10;80.30
78431;BME280;67727;50.236;22.452;2024-01-25T03:10:30;99027.67;;;5.12;80.03
78431;BME280;67727;50.236;22.452;2024-01-25T03:12:57;99026.59;;;5.14;79.82
78431;BME280;67727;50.236;22.452;2024-01-25T03:15:24;99028.96;;;5.15;79.84
78431;BME280;67727;50.236;22.452;2024-01-25T03:17:51;99030.42;;;5.16;79.69
78431;BME280;67727;50.236;22.452;2024-01-25T03:20:18;99034.95;;;5.18;79.64
78431;BME280;67727;50.236;22.452;2024-01-25T03:22:45;99033.80;;;5.21;79.52
78431;BME280;67727;50.236;22.452;2024-01-25T03:25:11;99037.95;;;5.22;79.36
78431;BME280;67727;50.236;22.452;2024-01-25T03:27:38;99033.73;;;5.22;79.36
78431;BME280;67727;50.236;22.452;2024-01-25T03:30:06;99021.58;;;5.20;79.27
78431;BME280;67727;50.236;22.452;2024-01-25T03:32:33;99022.08;;;5.21;79.18
78431;BME280;67727;50.236;22.452;2024-01-25T03:35:00;99022.21;;;5.21;79.04
78431;BME280;67727;50.236;22.452;2024-01-25T03:37:27;99018.98;;;5.22;79.02
78431;BME280;67727;50.236;22.452;2024-01-25T03:39:54;99015.94;;;5.21;78.75
78431;BME280;67727;50.236;22.452;2024-01-25T03:42:21;99017.65;;;5.19;78.58
78431;BME280;67727;50.236;22.452;2024-01-25T03:44:48;99019.98;;;5.19;78.56
78431;BME280;67727;50.236;22.452;2024-01-25T03:47:15;99014.92;;;5.18;78.62
78431;BME280;67727;50.236;22.452;2024-01-25T03:49:42;99017.27;;;5.19;78.49
78431;BME280;67727;50.236;22.452;2024-01-25T03:52:09;99007.73;;;5.20;78.52
78431;BME280;67727;50.236;22.452;2024-01-25T03:54:36;99013.45;;;5.21;78.57
78431;BME280;67727;50.236;22.452;2024-01-25T03:57:04;99013.54;;;5.20;78.08
78431;BME280;67727;50.236;22.452;2024-01-25T03:59:31;99019.95;;;5.19;78.16
78431;BME280;67727;50.236;22.452;2024-01-25T04:01:58;99016.92;;;5.19;78.04
78431;BME280;67727;50.236;22.452;2024-01-25T04:04:25;99020.86;;;5.21;77.83
78431;BME280;67727;50.236;22.452;2024-01-25T04:06:52;99027.55;;;5.22;77.80
78431;BME280;67727;50.236;22.452;2024-01-25T04:09:19;99032.05;;;5.24;77.54
78431;BME280;67727;50.236;22.452;2024-01-25T04:11:46;99029.06;;;5.26;77.27
78431;BME280;67727;50.236;22.452;2024-01-25T04:14:13;99031.16;;;5.26;77.32
78431;BME280;67727;50.236;22.452;2024-01-25T04:16:40;99027.84;;;5.26;77.27
78431;BME280;67727;50.236;22.452;2024-01-25T04:19:07;99033.30;;;5.26;77.06
78431;BME280;67727;50.236;22.452;2024-01-25T04:21:37;99035.39;;;5.27;76.92
78431;BME280;67727;50.236;22.452;2024-01-25T04:24:04;99028.81;;;5.28;76.73
78431;BME280;67727;50.236;22.452;2024-01-25T04:26:31;99032.86;;;5.28;76.88
78431;BME280;67727;50.236;22.452;2024-01-25T04:28:58;99032.11;;;5.27;77.09
78431;BME280;67727;50.236;22.452;2024-01-25T04:31:24;99028.40;;;5.26;77.18
78431;BME280;67727;50.236;22.452;2024-01-25T04:33:51;99034.02;;;5.26;76.98
78431;BME280;67727;50.236;22.452;2024-01-25T04:36:18;99027.45;;;5.26;76.99
78431;BME280;67727;50.236;22.452;2024-01-25T04:38:45;99034.86;;;5.27;77.08
78431;BME280;67727;50.236;22.452;2024-01-25T04:41:12;99031.16;;;5.28;76.92
78431;BME280;67727;50.236;22.452;2024-01-25T04:43:39;99027.16;;;5.27;76.82
78431;BME280;67727;50.236;22.452;2024-01-25T04:46:06;99026.97;;;5.28;76.77
78431;BME280;67727;50.236;22.452;2024-01-25T04:48:33;99032.64;;;5.27;76.81
78431;BME280;67727;50.236;22.452;2024-01-25T04:51:01;99032.64;;;5.27;76.62
78431;BME280;67727;50.236;22.452;2024-01-25T04:53:28;99034.61;;;5.27;76.58
78431;BME280;67727;50.236;22.452;2024-01-25T04:55:54;99036.71;;;5.27;76.42
78431;BME280;67727;50.236;22.452;2024-01-25T04:58:22;99035.59;;;5.27;76.32
78431;BME280;67727;50.236;22.452;2024-01-25T05:00:49;99036.86;;;5.29;76.32
78431;BME280;67727;50.236;22.452;2024-01-25T05:03:18;99036.14;;;5.29;76.09
78431;BME280;67727;50.236;22.452;2024-01-25T05:05:45;99039.85;;;5.28;76.09
78431;BME280;67727;50.236;22.452;2024-01-25T05:08:12;99038.73;;;5.27;76.00
78431;BME280;67727;50.236;22.452;2024-01-25T05:10:39;99043.52;;;5.27;76.11
78431;BME280;67727;50.236;22.452;2024-01-25T05:13:07;99050.20;;;5.26;75.94
78431;BME280;67727;50.236;22.452;2024-01-25T05:15:34;99049.52;;;5.28;75.98
78431;BME280;67727;50.236;22.452;2024-01-25T05:18:02;99056.69;;;5.28;76.03
78431;BME280;67727;50.236;22.452;2024-01-25T05:20:29;99048.90;;;5.27;75.94
78431;BME280;67727;50.236;22.452;2024-01-25T05:23:00;99052.73;;;5.26;76.07
78431;BME280;67727;50.236;22.452;2024-01-25T05:25:27;99063.35;;;5.25;76.29
78431;BME280;67727;50.236;22.452;2024-01-25T05:27:55;99066.33;;;5.23;76.77
78431;BME280;67727;50.236;22.452;2024-01-25T05:30:22;99070.55;;;5.21;77.38
78431;BME280;67727;50.236;22.452;2024-01-25T05:32:49;99065.10;;;5.17;77.67
78431;BME280;67727;50.236;22.452;2024-01-25T05:35:17;99068.09;;;5.14;78.02
78431;BME280;67727;50.236;22.452;2024-01-25T05:37:44;99065.90;;;5.10;78.15
78431;BME280;67727;50.236;22.452;2024-01-25T05:40:11;99068.24;;;5.06;78.29
78431;BME280;67727;50.236;22.452;2024-01-25T05:42:39;99072.84;;;5.00;78.57
78431;BME280;67727;50.236;22.452;2024-01-25T05:45:07;99066.14;;;4.96;78.65
78431;BME280;67727;50.236;22.452;2024-01-25T05:47:35;99068.41;;;4.94;78.68
78431;BME280;67727;50.236;22.452;2024-01-25T05:50:03;99067.27;;;4.92;78.83
78431;BME280;67727;50.236;22.452;2024-01-25T05:52:31;99072.58;;;4.91;78.81
78431;BME280;67727;50.236;22.452;2024-01-25T05:54:58;99069.59;;;4.89;78.69
78431;BME280;67727;50.236;22.452;2024-01-25T05:57:25;99073.30;;;4.87;78.63
78431;BME280;67727;50.236;22.452;2024-01-25T05:59:52;99078.05;;;4.85;78.91
78431;BME280;67727;50.236;22.452;2024-01-25T06:02:19;99081.20;;;4.84;78.85
78431;BME280;67727;50.236;22.452;2024-01-25T06:04:45;99085.95;;;4.83;78.85
78431;BME280;67727;50.236;22.452;2024-01-25T06:07:12;99089.48;;;4.83;79.28
78431;BME280;67727;50.236;22.452;2024-01-25T06:09:39;99091.52;;;4.82;79.79
78431;BME280;67727;50.236;22.452;2024-01-25T06:12:06;99093.70;;;4.79;80.31
78431;BME280;67727;50.236;22.452;2024-01-25T06:14:33;99101.70;;;4.75;80.68
78431;BME280;67727;50.236;22.452;2024-01-25T06:17:00;99096.35;;;4.71;81.06
78431;BME280;67727;50.236;22.452;2024-01-25T06:19:27;99102.05;;;4.68;81.25
78431;BME280;67727;50.236;22.452;2024-01-25T06:21:54;99094.70;;;4.64;81.50
78431;BME280;67727;50.236;22.452;2024-01-25T06:24:21;99093.34;;;4.62;81.61
78431;BME280;67727;50.236;22.452;2024-01-25T06:26:48;99085.95;;;4.60;81.68
78431;BME280;67727;50.236;22.452;2024-01-25T06:29:15;99087.27;;;4.58;82.04
78431;BME280;67727;50.236;22.452;2024-01-25T06:31:42;99089.23;;;4.54;82.22
78431;BME280;67727;50.236;22.452;2024-01-25T06:34:11;99093.48;;;4.50;82.26
78431;BME280;67727;50.236;22.452;2024-01-25T06:36:38;99096.85;;;4.48;82.55
78431;BME280;67727;50.236;22.452;2024-01-25T06:39:05;99091.73;;;4.47;82.72
78431;BME280;67727;50.236;22.452;2024-01-25T06:41:33;99091.46;;;4.46;82.60
78431;BME280;67727;50.236;22.452;2024-01-25T06:44:00;99087.73;;;4.45;82.80
78431;BME280;67727;50.236;22.452;2024-01-25T06:46:27;99089.91;;;4.44;82.77
78431;BME280;67727;50.236;22.452;2024-01-25T06:48:54;99091.22;;;4.43;82.78
78431;BME280;67727;50.236;22.452;2024-01-25T06:51:21;99087.71;;;4.41;83.02
78431;BME280;67727;50.236;22.452;2024-01-25T06:53:48;99091.13;;;4.40;82.99
78431;BME280;67727;50.236;22.452;2024-01-25T06:56:15;99087.97;;;4.40;82.71
78431;BME280;67727;50.236;22.452;2024-01-25T06:58:41;99089.52;;;4.41;82.77
78431;BME280;67727;50.236;22.452;2024-01-25T07:01:10;99089.35;;;4.41;82.68
78431;BME280;67727;50.236;22.452;2024-01-25T07:03:37;99090.46;;;4.40;82.86
78431;BME280;67727;50.236;22.452;2024-01-25T07:06:05;99095.24;;;4.40;82.84
78431;BME280;67727;50.236;22.452;2024-01-25T07:08:32;99099.51;;;4.39;82.92
78431;BME280;67727;50.236;22.452;2024-01-25T07:10:59;99097.41;;;4.39;82.84
78431;BME280;67727;50.236;22.452;2024-01-25T07:13:28;99094.07;;;4.39;82.92
78431;BME280;67727;50.236;22.452;2024-01-25T07:15:55;99084.79;;;4.39;82.91
78431;BME280;67727;50.236;22.452;2024-01-25T07:18:22;99090.88;;;4.38;82.97
78431;BME280;67727;50.236;22.452;2024-01-25T07:20:51;99086.59;;;4.37;82.83
78431;BME280;67727;50.236;22.452;2024-01-25T07:23:18;99085.40;;;4.36;83.16
78431;BME280;67727;50.236;22.452;2024-01-25T07:25:45;99088.25;;;4.36;83.12
78431;BME280;67727;50.236;22.452;2024-01-25T07:28:12;99087.08;;;4.35;83.20
78431;BME280;67727;50.236;22.452;2024-01-25T07:30:39;99085.56;;;4.35;83.03
78431;BME280;67727;50.236;22.452;2024-01-25T07:33:06;99089.40;;;4.35;82.99
78431;BME280;67727;50.236;22.452;2024-01-25T07:35:33;99084.30;;;4.35;82.96
78431;BME280;67727;50.236;22.452;2024-01-25T07:38:00;99083.31;;;4.37;83.06
78431;BME280;67727;50.236;22.452;2024-01-25T07:40:27;99080.91;;;4.38;83.00
78431;BME280;67727;50.236;22.452;2024-01-25T07:42:54;99080.71;;;4.38;82.82
78431;BME280;67727;50.236;22.452;2024-01-25T07:45:20;99078.89;;;4.39;83.03
78431;BME280;67727;50.236;22.452;2024-01-25T07:47:47;99078.14;;;4.40;83.00
78431;BME280;67727;50.236;22.452;2024-01-25T07:50:14;99078.89;;;4.40;82.76
78431;BME280;67727;50.236;22.452;2024-01-25T07:52:41;99071.09;;;4.41;82.54
78431;BME280;67727;50.236;22.452;2024-01-25T07:55:08;99074.48;;;4.42;82.28
78431;BME280;67727;50.236;22.452;2024-01-25T07:57:35;99067.52;;;4.44;82.30
78431;BME280;67727;50.236;22.452;2024-01-25T08:00:02;99070.16;;;4.45;82.34
78431;BME280;67727;50.236;22.452;2024-01-25T08:02:31;99059.70;;;4.49;81.74
78431;BME280;67727;50.236;22.452;2024-01-25T08:04:57;99058.68;;;4.52;81.67
78431;BME280;67727;50.236;22.452;2024-01-25T08:07:24;99059.08;;;4.57;81.38
78431;BME280;67727;50.236;22.452;2024-01-25T08:09:51;99061.78;;;4.61;81.16
78431;BME280;67727;50.236;22.452;2024-01-25T08:12:19;99054.77;;;4.65;80.99
78431;BME280;67727;50.236;22.452;2024-01-25T08:14:46;99052.98;;;4.69;81.25
78431;BME280;67727;50.236;22.452;2024-01-25T08:17:13;99052.29;;;4.74;81.30
78431;BME280;67727;50.236;22.452;2024-01-25T08:19:39;99053.60;;;4.78;81.06
78431;BME280;67727;50.236;22.452;2024-01-25T08:22:06;99050.34;;;4.83;81.20
78431;BME280;67727;50.236;22.452;2024-01-25T08:24:33;99042.94;;;4.86;80.87
78431;BME280;67727;50.236;22.452;2024-01-25T08:27:00;99037.79;;;4.91;80.51
78431;BME280;67727;50.236;22.452;2024-01-25T08:29:27;99039.77;;;4.95;80.36
78431;BME280;67727;50.236;22.452;2024-01-25T08:31:54;99040.64;;;4.99;80.04
78431;BME280;67727;50.236;22.452;2024-01-25T08:34:21;99040.59;;;5.02;79.98
78431;BME280;67727;50.236;22.452;2024-01-25T08:36:48;99042.94;;;5.05;79.35
78431;BME280;67727;50.236;22.452;2024-01-25T08:39:15;99040.77;;;5.07;79.27
78431;BME280;67727;50.236;22.452;2024-01-25T08:41:42;99042.89;;;5.10;79.19
78431;BME280;67727;50.236;22.452;2024-01-25T08:44:10;99043.33;;;5.13;79.13
78431;BME280;67727;50.236;22.452;2024-01-25T08:46:37;99039.02;;;5.16;79.15
78431;BME280;67727;50.236;22.452;2024-01-25T08:49:05;99039.05;;;5.19;79.21
78431;BME280;67727;50.236;22.452;2024-01-25T08:51:35;99041.52;;;5.23;79.21
78431;BME280;67727;50.236;22.452;2024-01-25T08:54:02;99038.91;;;5.26;79.57
78431;BME280;67727;50.236;22.452;2024-01-25T08:56:30;99040.57;;;5.30;79.70
78431;BME280;67727;50.236;22.452;2024-01-25T08:58:56;99039.31;;;5.34;79.72
78431;BME280;67727;50.236;22.452;2024-01-25T09:01:24;99048.23;;;5.37;80.15
78431;BME280;67727;50.236;22.452;2024-01-25T09:03:52;99047.95;;;5.40;80.23
78431;BME280;67727;50.236;22.452;2024-01-25T09:06:19;99046.98;;;5.40;80.57
78431;BME280;67727;50.236;22.452;2024-01-25T09:08:46;99049.94;;;5.41;80.95
78431;BME280;67727;50.236;22.452;2024-01-25T09:11:13;99043.55;;;5.40;80.88
78431;BME280;67727;50.236;22.452;2024-01-25T09:13:40;99043.10;;;5.37;81.36
78431;BME280;67727;50.236;22.452;2024-01-25T09:16:11;99046.73;;;5.33;81.21
78431;BME280;67727;50.236;22.452;2024-01-25T09:18:38;99042.88;;;5.30;81.44
78431;BME280;67727;50.236;22.452;2024-01-25T09:21:05;99049.33;;;5.27;81.20
78431;BME280;67727;50.236;22.452;2024-01-25T09:36:38;99060.98;;;5.62;80.29
78431;BME280;67727;50.236;22.452;2024-01-25T09:39:05;99058.76;;;5.67;79.20
78431;BME280;67727;50.236;22.452;2024-01-25T09:41:32;99051.95;;;5.62;79.23
78431;BME280;67727;50.236;22.452;2024-01-25T09:43:59;99056.36;;;5.58;79.73
78431;BME280;67727;50.236;22.452;2024-01-25T09:46:26;99053.73;;;5.55;79.82
78431;BME280;67727;50.236;22.452;2024-01-25T09:48:54;99056.64;;;5.51;79.61
78431;BME280;67727;50.236;22.452;2024-01-25T09:51:22;99061.69;;;5.46;79.84
78431;BME280;67727;50.236;22.452;2024-01-25T09:53:51;99057.04;;;5.41;80.29
78431;BME280;67727;50.236;22.452;2024-01-25T09:56:20;99062.98;;;5.38;80.62
78431;BME280;67727;50.236;22.452;2024-01-25T09:58:47;99060.80;;;5.36;80.57
78431;BME280;67727;50.236;22.452;2024-01-25T10:01:15;99056.34;;;5.33;80.73
78431;BME280;67727;50.236;22.452;2024-01-25T10:03:43;99059.98;;;5.30;80.77
78431;BME280;67727;50.236;22.452;2024-01-25T10:06:11;99061.90;;;5.27;80.74
78431;BME280;67727;50.236;22.452;2024-01-25T10:08:38;99062.04;;;5.24;80.91
78431;BME280;67727;50.236;22.452;2024-01-25T10:11:06;99065.14;;;5.21;81.32
78431;BME280;67727;50.236;22.452;2024-01-25T10:13:46;99064.11;;;5.17;81.55
78431;BME280;67727;50.236;22.452;2024-01-25T10:16:15;99062.64;;;5.13;81.78
78431;BME280;67727;50.236;22.452;2024-01-25T10:18:43;99069.89;;;5.10;82.07
78431;BME280;67727;50.236;22.452;2024-01-25T10:21:10;99060.36;;;5.09;82.15
78431;BME280;67727;50.236;22.452;2024-01-25T10:23:38;99066.02;;;5.09;82.38
78431;BME280;67727;50.236;22.452;2024-01-25T10:26:07;99074.46;;;5.08;82.82
78431;BME280;67727;50.236;22.452;2024-01-25T10:28:34;99072.01;;;5.08;82.96
78431;BME280;67727;50.236;22.452;2024-01-25T10:31:03;99065.38;;;5.08;83.07
78431;BME280;67727;50.236;22.452;2024-01-25T10:33:34;99076.02;;;5.07;83.17
78431;BME280;67727;50.236;22.452;2024-01-25T10:36:01;99074.33;;;5.06;83.41
78431;BME280;67727;50.236;22.452;2024-01-25T10:38:34;99074.46;;;5.05;83.50
78431;BME280;67727;50.236;22.452;2024-01-25T10:41:05;99070.94;;;5.03;83.47
78431;BME280;67727;50.236;22.452;2024-01-25T10:54:36;99083.02;;;5.44;82.79
78431;BME280;67727;50.236;22.452;2024-01-25T10:57:04;99081.77;;;5.51;82.74
78431;BME280;67727;50.236;22.452;2024-01-25T10:59:31;99074.14;;;5.47;82.66
78431;BME280;67727;50.236;22.452;2024-01-25T11:02:00;99077.61;;;5.43;82.61
78431;BME280;67727;50.236;22.452;2024-01-25T11:04:29;99075.55;;;5.37;82.75
78431;BME280;67727;50.236;22.452;2024-01-25T11:07:05;99073.20;;;5.31;82.84
78431;BME280;67727;50.236;22.452;2024-01-25T11:09:33;99074.85;;;5.27;83.12
78431;BME280;67727;50.236;22.452;2024-01-25T11:12:01;99078.69;;;5.24;83.34
78431;BME280;67727;50.236;22.452;2024-01-25T11:14:28;99083.13;;;5.20;83.45
78431;BME280;67727;50.236;22.452;2024-01-25T11:16:55;99082.02;;;5.15;83.71
78431;BME280;67727;50.236;22.452;2024-01-25T11:19:22;99087.00;;;5.11;83.85
78431;BME280;67727;50.236;22.452;2024-01-25T11:21:52;99080.97;;;5.08;83.92
78431;BME280;67727;50.236;22.452;2024-01-25T11:24:24;99074.85;;;5.05;83.91
78431;BME280;67727;50.236;22.452;2024-01-25T11:26:54;99080.73;;;5.02;84.06
78431;BME280;67727;50.236;22.452;2024-01-25T11:29:22;99081.02;;;5.01;84.33
78431;BME280;67727;50.236;22.452;2024-01-25T11:31:51;99085.16;;;5.01;84.50
78431;BME280;67727;50.236;22.452;2024-01-25T11:34:18;99084.04;;;5.04;84.55
78431;BME280;67727;50.236;22.452;2024-01-25T11:36:45;99083.52;;;5.07;84.53
78431;BME280;67727;50.236;22.452;2024-01-25T11:39:15;99085.10;;;5.09;84.66
78431;BME280;67727;50.236;22.452;2024-01-25T11:41:44;99084.08;;;5.10;84.77
78431;BME280;67727;50.236;22.452;2024-01-25T11:44:12;99079.73;;;5.11;84.59
78431;BME280;67727;50.236;22.452;2024-01-25T11:46:39;99084.38;;;5.14;84.48
78431;BME280;67727;50.236;22.452;2024-01-25T11:49:06;99083.57;;;5.15;84.53
78431;BME280;67727;50.236;22.452;2024-01-25T11:51:35;99081.20;;;5.14;84.24
78431;BME280;67727;50.236;22.452;2024-01-25T11:54:02;99091.20;;;5.14;84.39
78431;BME280;67727;50.236;22.452;2024-01-25T11:56:34;99099.98;;;5.12;84.19
78431;BME280;67727;50.236;22.452;2024-01-25T11:59:02;99090.25;;;5.11;84.19
78431;BME280;67727;50.236;22.452;2024-01-25T12:01:30;99094.61;;;5.13;84.50
78431;BME280;67727;50.236;22.452;2024-01-25T12:03:57;99095.09;;;5.14;84.43
78431;BME280;67727;50.236;22.452;2024-01-25T12:06:24;99103.61;;;5.14;84.62
78431;BME280;67727;50.236;22.452;2024-01-25T12:08:51;99104.44;;;5.15;84.32
78431;BME280;67727;50.236;22.452;2024-01-25T12:11:18;99106.37;;;5.13;84.70
78431;BME280;67727;50.236;22.452;2024-01-25T12:13:45;99105.91;;;5.12;84.98
78431;BME280;67727;50.236;22.452;2024-01-25T12:16:13;99108.10;;;5.11;85.01
78431;BME280;67727;50.236;22.452;2024-01-25T12:18:40;99112.84;;;5.10;84.83
78431;BME280;67727;50.236;22.452;2024-01-25T12:21:08;99109.39;;;5.09;85.29
78431;BME280;67727;50.236;22.452;2024-01-25T12:23:37;99108.80;;;5.08;85.13
78431;BME280;67727;50.236;22.452;2024-01-25T12:26:05;99111.42;;;5.07;85.28
78431;BME280;67727;50.236;22.452;2024-01-25T12:28:33;99118.25;;;5.05;85.22
78431;BME280;67727;50.236;22.452;2024-01-25T12:31:00;99125.24;;;5.03;85.50
78431;BME280;67727;50.236;22.452;2024-01-25T12:33:27;99126.83;;;5.01;85.49
78431;BME280;67727;50.236;22.452;2024-01-25T12:35:55;99128.23;;;5.01;85.44
78431;BME280;67727;50.236;22.452;2024-01-25T12:38:22;99130.92;;;5.01;85.67
78431;BME280;67727;50.236;22.452;2024-01-25T12:40:50;99136.80;;;5.00;85.79
78431;BME280;67727;50.236;22.452;2024-01-25T12:43:18;99137.45;;;4.99;85.90
78431;BME280;67727;50.236;22.452;2024-01-25T12:45:45;99142.80;;;4.98;85.87
78431;BME280;67727;50.236;22.452;2024-01-25T12:48:12;99148.97;;;4.97;86.01
78431;BME280;67727;50.236;22.452;2024-01-25T12:50:40;99149.92;;;4.97;86.00
78431;BME280;67727;50.236;22.452;2024-01-25T12:53:10;99151.39;;;4.96;85.95
78431;BME280;67727;50.236;22.452;2024-01-25T12:55:38;99154.95;;;4.95;86.01
78431;BME280;67727;50.236;22.452;2024-01-25T12:58:05;99153.27;;;4.95;86.15
78431;BME280;67727;50.236;22.452;2024-01-25T13:00:32;99154.96;;;4.93;86.05
78431;BME280;67727;50.236;22.452;2024-01-25T13:02:59;99152.24;;;4.91;86.11
78431;BME280;67727;50.236;22.452;2024-01-25T13:05:30;99151.45;;;4.88;86.13
78431;BME280;67727;50.236;22.452;2024-01-25T13:08:01;99153.31;;;4.85;86.08
78431;BME280;67727;50.236;22.452;2024-01-25T13:10:29;99161.15;;;4.84;86.15
78431;BME280;67727;50.236;22.452;2024-01-25T13:13:59;99159.48;;;4.85;86.24
78431;BME280;67727;50.236;22.452;2024-01-25T13:16:25;99169.59;;;4.82;86.35
78431;BME280;67727;50.236;22.452;2024-01-25T13:18:52;99168.21;;;4.82;86.09
78431;BME280;67727;50.236;22.452;2024-01-25T13:21:19;99168.23;;;4.81;86.44
78431;BME280;67727;50.236;22.452;2024-01-25T13:23:46;99172.30;;;4.81;86.34
78431;BME280;67727;50.236;22.452;2024-01-25T13:26:13;99172.92;;;4.80;86.18